Time;durP1;ratioP1;P1;durP2;ratioP2;P2;SDS_P1;SDS_P2;PMS_P1;PMS_P2;Temp;Humidity;BMP_temperature;BMP_pressure;BME280_temperature;BME280_humidity;BME280_pressure;Samples;Min_cycle;Max_cycle;Signal;HPM_P1;HPM_P2
2022/09/16 00:00:44;;;;;;;1.27;0.63;;;;;;;;;;5018722;28;20049;-64
2022/09/16 00:03:14;;;;;;;1.00;0.45;;;;;;;;;;5021245;28;20045;-64
2022/09/16 00:05:42;;;;;;;0.68;0.50;;;;;;;;;;5023681;28;20069;-64
2022/09/16 00:08:11;;;;;;;1.10;0.65;;;;;;;;;;5028162;28;20041;-64
2022/09/16 00:10:39;;;;;;;1.15;0.80;;;;;;;;;;5023210;28;20042;-64
2022/09/16 00:13:08;;;;;;;0.65;0.43;;;;;;;;;;5030983;28;20045;-63
2022/09/16 00:15:36;;;;;;;1.83;0.50;;;;;;;;;;5026655;28;20398;-64
2022/09/16 00:18:04;;;;;;;1.13;0.60;;;;;;;;;;5023621;28;20425;-64
2022/09/16 00:20:34;;;;;;;0.70;0.40;;;;;;;;;;5022997;28;20046;-64
2022/09/16 00:23:03;;;;;;;0.90;0.90;;;;;;;;;;5022168;28;20068;-64
2022/09/16 00:25:33;;;;;;;0.85;0.68;;;;;;;;;;5016850;28;20053;-64
2022/09/16 00:28:01;;;;;;;0.47;0.47;;;;;;;;;;5018453;28;20563;-64
2022/09/16 00:30:30;;;;;;;0.93;0.50;;;;;;;;;;5029921;28;20045;-65
2022/09/16 00:32:58;;;;;;;1.65;0.70;;;;;;;;;;5025447;28;20572;-65
2022/09/16 00:35:26;;;;;;;1.40;0.80;;;;;;;;;;5023544;28;20069;-64
2022/09/16 00:37:56;;;;;;;1.67;0.47;;;;;;;;;;5026625;28;20041;-64
2022/09/16 00:40:24;;;;;;;0.60;0.30;;;;;;;;;;5023327;28;20042;-65
2022/09/16 00:42:53;;;;;;;0.45;0.45;;;;;;;;;;5024237;28;20107;-65
2022/09/16 00:45:22;;;;;;;0.70;0.60;;;;;;;;;;5028100;28;20046;-64
2022/09/16 00:47:51;;;;;;;2.10;0.57;;;;;;;;;;5018642;28;20468;-65
2022/09/16 00:50:22;;;;;;;1.33;0.63;;;;;;;;;;5024678;28;20406;-65
2022/09/16 00:52:52;;;;;;;0.73;0.50;;;;;;;;;;5014479;28;20049;-64
2022/09/16 00:55:24;;;;;;;0.45;0.45;;;;;;;;;;5020054;28;20057;-64
2022/09/16 00:57:52;;;;;;;0.68;0.50;;;;;;;;;;5028361;28;20497;-64
2022/09/16 01:00:21;;;;;;;1.88;0.70;;;;;;;;;;5029901;28;20046;-64
2022/09/16 01:02:50;;;;;;;0.68;0.50;;;;;;;;;;5024474;28;20050;-64
2022/09/16 01:05:21;;;;;;;1.02;0.60;;;;;;;;;;5026377;28;20068;-64
2022/09/16 01:07:50;;;;;;;1.08;0.55;;;;;;;;;;5018174;28;20096;-64
2022/09/16 01:10:19;;;;;;;0.93;0.73;;;;;;;;;;5029838;28;20049;-64
2022/09/16 01:12:50;;;;;;;1.10;0.75;;;;;;;;;;5031391;28;20046;-64
2022/09/16 01:15:19;;;;;;;4.57;0.68;;;;;;;;;;5020736;28;20045;-64
2022/09/16 01:17:51;;;;;;;1.95;0.93;;;;;;;;;;5030135;28;20049;-64
2022/09/16 01:20:36;;;;;;;0.85;0.60;;;;;;;;;;5020900;28;20045;-65
2022/09/16 01:23:20;;;;;;;0.52;0.47;;;;;;;;;;5028859;28;20050;-64
2022/09/16 01:25:54;;;;;;;1.05;0.70;;;;;;;;;;5027677;28;20085;-64
2022/09/16 01:28:38;;;;;;;1.80;0.60;;;;;;;;;;5028898;28;20060;-64
2022/09/16 01:31:13;;;;;;;0.90;0.47;;;;;;;;;;5015940;28;20057;-64
2022/09/16 01:33:44;;;;;;;4.40;0.80;;;;;;;;;;5024929;28;20049;-64
2022/09/16 01:36:19;;;;;;;1.73;0.80;;;;;;;;;;5024187;28;20054;-64
2022/09/16 01:38:56;;;;;;;0.68;0.50;;;;;;;;;;5022873;28;20048;-64
2022/09/16 01:41:28;;;;;;;1.45;0.65;;;;;;;;;;5027802;28;20064;-64
2022/09/16 01:44:00;;;;;;;0.50;0.50;;;;;;;;;;5020714;28;20341;-65
2022/09/16 01:46:32;;;;;;;1.05;0.73;;;;;;;;;;5016383;28;20506;-65
2022/09/16 01:49:03;;;;;;;0.40;0.40;;;;;;;;;;5020298;28;20045;-65
2022/09/16 01:51:34;;;;;;;0.65;0.52;;;;;;;;;;5019694;28;20050;-65
2022/09/16 01:54:04;;;;;;;0.93;0.65;;;;;;;;;;5021371;28;20049;-64
2022/09/16 01:56:33;;;;;;;0.50;0.30;;;;;;;;;;5019827;28;20042;-64
2022/09/16 01:59:05;;;;;;;0.93;0.50;;;;;;;;;;5024024;28;20724;-64
2022/09/16 02:01:37;;;;;;;1.05;0.70;;;;;;;;;;5026152;28;20052;-64
2022/09/16 02:04:07;;;;;;;0.35;0.30;;;;;;;;;;5024411;28;20084;-64
2022/09/16 02:06:36;;;;;;;1.17;0.63;;;;;;;;;;5019326;28;20060;-64
2022/09/16 02:09:06;;;;;;;1.02;0.50;;;;;;;;;;5024208;28;20046;-66
2022/09/16 02:11:36;;;;;;;0.40;0.30;;;;;;;;;;5030362;28;20053;-64
2022/09/16 02:14:07;;;;;;;1.15;0.75;;;;;;;;;;5028380;28;20045;-65
2022/09/16 02:16:42;;;;;;;1.73;0.98;;;;;;;;;;5018487;28;20068;-65
2022/09/16 02:19:13;;;;;;;1.23;0.73;;;;;;;;;;5028307;28;20045;-64
2022/09/16 02:21:41;;;;;;;1.25;0.65;;;;;;;;;;5025626;28;20068;-65
2022/09/16 02:24:16;;;;;;;0.57;0.28;;;;;;;;;;5027877;28;20049;-65
2022/09/16 02:26:47;;;;;;;0.50;0.35;;;;;;;;;;5024541;28;20444;-65
2022/09/16 02:29:18;;;;;;;0.75;0.75;;;;;;;;;;5021528;28;20041;-66
2022/09/16 02:31:49;;;;;;;5.97;0.80;;;;;;;;;;5024450;28;20053;-66
2022/09/16 02:34:25;;;;;;;1.77;0.55;;;;;;;;;;5029068;28;20052;-64
2022/09/16 02:36:55;;;;;;;0.52;0.32;;;;;;;;;;5026412;28;20053;-65
2022/09/16 02:39:27;;;;;;;2.00;0.65;;;;;;;;;;5019235;28;20053;-65
2022/09/16 02:41:55;;;;;;;0.90;0.70;;;;;;;;;;5020562;28;20049;-65
2022/09/16 02:44:26;;;;;;;0.85;0.43;;;;;;;;;;5023334;28;20052;-65
2022/09/16 02:47:00;;;;;;;1.15;0.60;;;;;;;;;;5026906;28;20057;-65
2022/09/16 02:49:34;;;;;;;3.10;0.63;;;;;;;;;;5023805;28;20049;-65
2022/09/16 02:52:05;;;;;;;0.80;0.43;;;;;;;;;;5026462;28;20057;-64
2022/09/16 02:54:36;;;;;;;0.25;0.25;;;;;;;;;;5020999;28;20045;-65
2022/09/16 02:57:05;;;;;;;0.63;0.30;;;;;;;;;;5018192;28;20053;-64
2022/09/16 02:59:35;;;;;;;1.65;0.60;;;;;;;;;;5023704;28;20048;-65
2022/09/16 03:02:05;;;;;;;1.98;0.65;;;;;;;;;;5022998;28;20042;-65
2022/09/16 03:04:35;;;;;;;0.80;0.45;;;;;;;;;;5021373;28;20050;-64
2022/09/16 03:07:04;;;;;;;0.63;0.60;;;;;;;;;;5024669;28;20042;-64
2022/09/16 03:09:35;;;;;;;1.30;0.45;;;;;;;;;;5020658;28;20053;-66
2022/09/16 03:12:08;;;;;;;1.08;0.70;;;;;;;;;;5020983;28;20061;-64
2022/09/16 03:14:57;;;;;;;0.45;0.38;;;;;;;;;;5023091;28;20042;-66
2022/09/16 03:17:32;;;;;;;2.67;0.52;;;;;;;;;;5016282;28;20048;-64
2022/09/16 03:20:05;;;;;;;1.00;0.65;;;;;;;;;;5023172;28;20498;-64
2022/09/16 03:22:39;;;;;;;2.30;0.73;;;;;;;;;;5026897;28;20049;-64
2022/09/16 03:25:10;;;;;;;0.98;0.65;;;;;;;;;;5025414;28;20370;-64
2022/09/16 03:27:41;;;;;;;0.95;0.70;;;;;;;;;;5024743;28;20057;-64
2022/09/16 03:30:11;;;;;;;1.27;0.80;;;;;;;;;;5024427;28;20057;-64
2022/09/16 03:32:45;;;;;;;1.42;0.80;;;;;;;;;;5021694;28;20052;-64
2022/09/16 03:35:15;;;;;;;2.28;0.95;;;;;;;;;;5019751;28;20053;-66
2022/09/16 03:37:45;;;;;;;0.98;0.70;;;;;;;;;;5023802;28;20054;-64
2022/09/16 03:40:14;;;;;;;2.75;0.93;;;;;;;;;;5018053;28;20061;-64
2022/09/16 03:42:44;;;;;;;3.22;0.85;;;;;;;;;;5017441;28;20057;-65
2022/09/16 03:45:15;;;;;;;1.27;0.60;;;;;;;;;;5018864;28;20068;-64
2022/09/16 03:47:45;;;;;;;0.90;0.60;;;;;;;;;;5021717;28;20060;-64
2022/09/16 03:50:13;;;;;;;1.23;0.80;;;;;;;;;;5021931;28;20053;-65
2022/09/16 03:52:42;;;;;;;4.88;0.80;;;;;;;;;;5025023;28;20478;-65
2022/09/16 03:55:10;;;;;;;1.48;0.75;;;;;;;;;;5028567;28;20049;-65
2022/09/16 03:57:39;;;;;;;0.70;0.60;;;;;;;;;;5024679;28;21554;-64
2022/09/16 04:00:08;;;;;;;1.38;1.00;;;;;;;;;;5020194;28;20053;-65
2022/09/16 04:02:36;;;;;;;2.80;0.80;;;;;;;;;;5018076;28;20046;-64
2022/09/16 04:05:07;;;;;;;1.00;0.65;;;;;;;;;;5024686;28;20399;-64
2022/09/16 04:07:36;;;;;;;1.42;0.93;;;;;;;;;;5017580;28;20042;-64
2022/09/16 04:10:05;;;;;;;1.15;0.60;;;;;;;;;;5017721;28;20046;-65
2022/09/16 04:12:33;;;;;;;0.50;0.40;;;;;;;;;;5024236;28;20052;-65
2022/09/16 04:15:02;;;;;;;4.35;0.63;;;;;;;;;;5021098;28;20050;-65
2022/09/16 04:17:31;;;;;;;1.27;0.50;;;;;;;;;;5022915;28;20056;-65
2022/09/16 04:20:00;;;;;;;2.63;1.08;;;;;;;;;;5023766;28;20045;-64
2022/09/16 04:22:30;;;;;;;0.68;0.47;;;;;;;;;;5025869;28;20052;-65
2022/09/16 04:24:58;;;;;;;0.68;0.43;;;;;;;;;;5019915;28;20280;-65
2022/09/16 04:27:27;;;;;;;1.25;0.80;;;;;;;;;;5027833;28;20046;-64
2022/09/16 04:29:55;;;;;;;2.65;1.00;;;;;;;;;;5014138;28;20065;-64
2022/09/16 04:32:23;;;;;;;2.58;1.23;;;;;;;;;;5032449;28;20472;-64
2022/09/16 04:34:52;;;;;;;1.20;0.88;;;;;;;;;;5026525;28;20537;-65
2022/09/16 04:37:20;;;;;;;0.68;0.55;;;;;;;;;;5021992;28;20045;-67
2022/09/16 04:39:49;;;;;;;1.55;1.08;;;;;;;;;;5027567;28;20053;-65
2022/09/16 04:42:18;;;;;;;1.65;0.68;;;;;;;;;;5026561;28;20049;-64
2022/09/16 04:44:46;;;;;;;2.05;0.90;;;;;;;;;;5024399;28;20058;-64
2022/09/16 04:47:14;;;;;;;1.77;0.77;;;;;;;;;;5029630;28;20084;-65
2022/09/16 04:49:43;;;;;;;1.77;0.98;;;;;;;;;;5020761;28;20525;-64
2022/09/16 04:52:11;;;;;;;1.55;1.00;;;;;;;;;;5028227;28;20401;-65
2022/09/16 04:54:39;;;;;;;3.55;1.30;;;;;;;;;;5023140;28;20053;-64
2022/09/16 04:57:09;;;;;;;1.85;1.08;;;;;;;;;;5021503;28;20045;-67
2022/09/16 04:59:37;;;;;;;2.47;1.15;;;;;;;;;;5024580;28;20046;-65
2022/09/16 05:02:06;;;;;;;1.80;0.70;;;;;;;;;;5027935;28;20489;-65
2022/09/16 05:04:34;;;;;;;3.47;1.15;;;;;;;;;;5022964;28;20055;-64
2022/09/16 05:07:03;;;;;;;3.28;1.85;;;;;;;;;;5026957;28;20416;-64
2022/09/16 05:09:31;;;;;;;1.45;1.02;;;;;;;;;;5031345;28;20060;-65
2022/09/16 05:11:59;;;;;;;2.30;1.10;;;;;;;;;;5028643;28;20133;-65
2022/09/16 05:14:29;;;;;;;1.15;0.68;;;;;;;;;;5028961;28;20041;-65
2022/09/16 05:16:57;;;;;;;2.30;0.90;;;;;;;;;;5029909;28;20535;-66
2022/09/16 05:19:26;;;;;;;2.65;1.33;;;;;;;;;;5027020;28;20046;-64
2022/09/16 05:21:54;;;;;;;2.97;1.52;;;;;;;;;;5025205;28;20049;-64
2022/09/16 05:24:22;;;;;;;2.47;1.25;;;;;;;;;;5023743;28;20397;-65
2022/09/16 05:26:50;;;;;;;1.90;1.17;;;;;;;;;;5023938;28;20073;-65
2022/09/16 05:29:19;;;;;;;1.42;1.00;;;;;;;;;;5025535;28;20294;-64
2022/09/16 05:31:49;;;;;;;1.23;0.70;;;;;;;;;;5019060;28;20331;-66
2022/09/16 05:34:20;;;;;;;4.55;1.40;;;;;;;;;;5025663;28;20081;-66
2022/09/16 05:36:49;;;;;;;1.35;1.13;;;;;;;;;;5016961;28;20494;-65
2022/09/16 05:39:18;;;;;;;4.82;0.98;;;;;;;;;;5018540;28;20056;-66
2022/09/16 05:41:54;;;;;;;0.70;0.70;;;;;;;;;;5019360;28;20046;-64
2022/09/16 05:44:22;;;;;;;3.08;1.08;;;;;;;;;;5027223;28;20429;-65
2022/09/16 05:46:55;;;;;;;3.17;1.20;;;;;;;;;;5023439;28;20053;-64
2022/09/16 05:49:23;;;;;;;3.42;1.23;;;;;;;;;;5024972;28;20049;-65
2022/09/16 05:51:52;;;;;;;3.53;1.00;;;;;;;;;;5019322;28;20060;-66
2022/09/16 05:54:23;;;;;;;1.50;0.73;;;;;;;;;;5020342;28;20575;-64
2022/09/16 05:56:52;;;;;;;1.95;1.20;;;;;;;;;;5019786;28;20397;-65
2022/09/16 05:59:22;;;;;;;2.47;1.27;;;;;;;;;;5022344;28;20069;-66
2022/09/16 06:01:52;;;;;;;1.20;0.90;;;;;;;;;;5021106;28;20458;-65
2022/09/16 06:04:20;;;;;;;4.88;1.58;;;;;;;;;;5012935;28;20096;-65
2022/09/16 06:06:48;;;;;;;2.28;1.20;;;;;;;;;;5018421;28;20081;-64
2022/09/16 06:09:21;;;;;;;2.10;1.25;;;;;;;;;;5020264;28;20061;-65
2022/09/16 06:11:51;;;;;;;8.18;1.08;;;;;;;;;;5024014;28;20057;-65
2022/09/16 06:14:28;;;;;;;2.33;1.48;;;;;;;;;;5026315;28;20082;-65
2022/09/16 06:16:58;;;;;;;1.40;1.23;;;;;;;;;;5023574;28;20099;-65
2022/09/16 06:19:26;;;;;;;4.45;1.60;;;;;;;;;;5020381;28;20148;-65
2022/09/16 06:21:55;;;;;;;3.58;1.17;;;;;;;;;;5012208;28;20133;-65
2022/09/16 06:24:24;;;;;;;3.22;1.38;;;;;;;;;;5027878;28;20144;-65
2022/09/16 06:26:52;;;;;;;2.40;1.25;;;;;;;;;;5015951;28;20042;-65
2022/09/16 06:29:21;;;;;;;3.28;1.30;;;;;;;;;;5018570;28;20049;-66
2022/09/16 06:31:49;;;;;;;1.25;0.77;;;;;;;;;;5023553;28;20311;-65
2022/09/16 06:34:19;;;;;;;4.72;1.35;;;;;;;;;;5012037;28;20060;-66
2022/09/16 06:36:48;;;;;;;3.10;1.52;;;;;;;;;;5014708;28;20185;-66
2022/09/16 06:39:17;;;;;;;3.40;1.02;;;;;;;;;;5026417;28;20049;-65
2022/09/16 06:41:45;;;;;;;5.07;1.45;;;;;;;;;;5022441;28;20128;-65
2022/09/16 06:44:14;;;;;;;3.42;1.50;;;;;;;;;;5017786;28;20103;-65
2022/09/16 06:46:43;;;;;;;8.70;1.35;;;;;;;;;;5025730;28;20060;-67
2022/09/16 06:49:11;;;;;;;4.07;1.15;;;;;;;;;;5023093;28;20045;-65
2022/09/16 06:51:42;;;;;;;3.25;1.40;;;;;;;;;;5015639;28;20049;-66
2022/09/16 06:54:11;;;;;;;3.97;1.70;;;;;;;;;;5025024;28;20685;-65
2022/09/16 06:56:40;;;;;;;2.65;1.50;;;;;;;;;;5019637;28;20050;-64
2022/09/16 06:59:13;;;;;;;3.35;0.98;;;;;;;;;;5013551;28;20133;-65
2022/09/16 07:01:41;;;;;;;2.10;1.33;;;;;;;;;;5026288;28;20108;-66
2022/09/16 07:04:12;;;;;;;2.00;1.33;;;;;;;;;;5012754;28;20038;-65
2022/09/16 07:06:42;;;;;;;2.70;1.50;;;;;;;;;;5021488;28;20473;-65
2022/09/16 07:09:31;;;;;;;2.53;1.55;;;;;;;;;;5015142;28;20042;-65
2022/09/16 07:12:00;;;;;;;1.85;0.85;;;;;;;;;;5012063;28;20603;-65
2022/09/16 07:14:31;;;;;;;1.70;1.05;;;;;;;;;;5016920;28;20037;-67
2022/09/16 07:16:59;;;;;;;2.30;1.45;;;;;;;;;;5017357;28;20046;-66
2022/09/16 07:19:28;;;;;;;3.22;1.55;;;;;;;;;;5020738;28;20045;-66
2022/09/16 07:21:58;;;;;;;4.05;1.23;;;;;;;;;;5013521;28;20057;-65
2022/09/16 07:24:26;;;;;;;1.88;0.95;;;;;;;;;;5025603;28;20042;-66
2022/09/16 07:26:55;;;;;;;3.92;1.35;;;;;;;;;;5019753;28;20500;-65
2022/09/16 07:29:23;;;;;;;2.05;1.35;;;;;;;;;;5021193;28;20050;-66
2022/09/16 07:31:53;;;;;;;3.22;1.77;;;;;;;;;;5016757;28;20053;-65
2022/09/16 07:34:21;;;;;;;4.65;1.88;;;;;;;;;;5023329;28;20053;-68
2022/09/16 07:36:50;;;;;;;3.20;1.77;;;;;;;;;;5014825;28;20046;-66
2022/09/16 07:39:21;;;;;;;4.28;1.52;;;;;;;;;;5021187;28;20128;-66
2022/09/16 07:41:49;;;;;;;3.05;1.25;;;;;;;;;;5016526;28;20091;-65
2022/09/16 07:44:21;;;;;;;3.22;1.48;;;;;;;;;;5022339;28;20443;-67
2022/09/16 07:46:50;;;;;;;1.77;1.00;;;;;;;;;;5015805;28;20041;-66
2022/09/16 07:49:19;;;;;;;3.42;1.30;;;;;;;;;;5022415;28;20048;-66
2022/09/16 07:51:47;;;;;;;4.50;1.70;;;;;;;;;;5024282;28;20050;-65
2022/09/16 07:54:17;;;;;;;6.70;2.50;;;;;;;;;;5017889;28;20088;-66
2022/09/16 07:56:47;;;;;;;2.40;1.40;;;;;;;;;;5022935;28;20046;-65
2022/09/16 07:59:18;;;;;;;2.42;1.48;;;;;;;;;;5023212;28;21614;-65
2022/09/16 08:01:48;;;;;;;3.60;1.90;;;;;;;;;;5021505;28;20053;-67
2022/09/16 08:04:17;;;;;;;2.38;1.45;;;;;;;;;;5021277;28;20251;-66
2022/09/16 08:06:46;;;;;;;3.15;1.52;;;;;;;;;;5020984;28;20054;-65
2022/09/16 08:09:15;;;;;;;4.53;1.45;;;;;;;;;;5020184;28;20501;-65
2022/09/16 08:12:06;;;;;;;6.18;1.55;;;;;;;;;;5023372;28;20045;-66
2022/09/16 08:14:35;;;;;;;2.75;1.45;;;;;;;;;;5026169;28;20089;-68
2022/09/16 08:17:04;;;;;;;3.10;1.50;;;;;;;;;;5025172;28;20456;-70
2022/09/16 08:19:33;;;;;;;3.63;1.38;;;;;;;;;;5025746;28;20413;-72
2022/09/16 08:22:01;;;;;;;4.22;1.83;;;;;;;;;;5024245;28;20050;-69
2022/09/16 08:24:31;;;;;;;2.25;1.23;;;;;;;;;;5022070;28;20108;-68
2022/09/16 08:26:59;;;;;;;6.43;1.83;;;;;;;;;;5028620;28;20045;-69
2022/09/16 08:29:29;;;;;;;1.58;1.30;;;;;;;;;;5020005;28;20041;-68
2022/09/16 08:31:58;;;;;;;1.83;1.38;;;;;;;;;;5022451;28;20068;-72
2022/09/16 08:34:27;;;;;;;6.10;1.52;;;;;;;;;;5026128;28;20133;-67
2022/09/16 08:36:55;;;;;;;3.25;1.20;;;;;;;;;;5028917;28;20551;-70
2022/09/16 08:39:24;;;;;;;4.63;1.70;;;;;;;;;;5026630;28;20650;-70
2022/09/16 08:42:04;;;;;;;3.25;1.20;;;;;;;;;;5030370;28;20064;-68
2022/09/16 08:44:38;;;;;;;3.60;1.23;;;;;;;;;;5016084;28;20516;-71
2022/09/16 08:47:10;;;;;;;4.50;1.35;;;;;;;;;;5021365;28;20045;-68
2022/09/16 08:49:40;;;;;;;1.48;1.20;;;;;;;;;;5023810;28;20053;-71
2022/09/16 08:52:15;;;;;;;3.83;1.63;;;;;;;;;;5025884;28;20057;-73
2022/09/16 08:54:45;;;;;;;3.17;1.20;;;;;;;;;;5021102;28;20056;-69
2022/09/16 08:57:15;;;;;;;1.08;0.80;;;;;;;;;;5021086;28;20060;-70
2022/09/16 08:59:49;;;;;;;5.38;1.25;;;;;;;;;;5024432;28;20103;-68
2022/09/16 09:02:21;;;;;;;3.72;1.67;;;;;;;;;;5022532;28;20413;-68
2022/09/16 09:04:51;;;;;;;0.88;0.80;;;;;;;;;;5019809;28;20049;-71
2022/09/16 09:07:25;;;;;;;1.83;1.00;;;;;;;;;;5024041;28;20117;-70
2022/09/16 09:10:00;;;;;;;1.40;1.30;;;;;;;;;;5029416;28;20041;-75
2022/09/16 09:12:32;;;;;;;3.90;1.35;;;;;;;;;;5023069;28;20049;-73
2022/09/16 09:15:20;;;;;;;3.15;1.15;;;;;;;;;;5019880;28;20537;-68
2022/09/16 09:17:59;;;;;;;5.28;2.00;;;;;;;;;;5025542;28;20507;-69
2022/09/16 09:20:33;;;;;;;3.38;1.70;;;;;;;;;;5022676;28;20073;-71
2022/09/16 09:23:10;;;;;;;1.80;1.40;;;;;;;;;;5012741;28;20049;-68
2022/09/16 09:25:41;;;;;;;3.35;1.52;;;;;;;;;;5028686;28;20409;-69
2022/09/16 09:28:20;;;;;;;2.35;1.42;;;;;;;;;;5017761;28;20049;-72
2022/09/16 09:30:54;;;;;;;3.45;1.70;;;;;;;;;;5018877;28;20053;-70
2022/09/16 09:33:28;;;;;;;2.20;1.20;;;;;;;;;;5018915;28;20466;-72
2022/09/16 09:36:37;;;;;;;3.25;1.33;;;;;;;;;;5026585;28;20053;-71
2022/09/16 09:39:10;;;;;;;2.60;1.75;;;;;;;;;;5023005;28;20060;-68
2022/09/16 09:41:42;;;;;;;3.00;1.73;;;;;;;;;;5023768;28;20098;-68
2022/09/16 09:44:20;;;;;;;2.40;1.75;;;;;;;;;;5018450;28;20372;-68
2022/09/16 09:46:53;;;;;;;2.42;1.25;;;;;;;;;;5025594;28;20045;-69
2022/09/16 09:49:26;;;;;;;3.83;1.60;;;;;;;;;;5019664;28;20478;-71
2022/09/16 09:51:57;;;;;;;8.98;1.88;;;;;;;;;;5019059;28;20205;-71
2022/09/16 09:54:28;;;;;;;3.30;1.48;;;;;;;;;;5022937;28;20053;-68
2022/09/16 09:56:59;;;;;;;1.90;1.15;;;;;;;;;;5021645;28;20108;-69
2022/09/16 09:59:31;;;;;;;4.35;2.10;;;;;;;;;;5023460;28;20123;-68
2022/09/16 10:02:02;;;;;;;2.90;1.60;;;;;;;;;;5021964;28;20103;-69
2022/09/16 10:04:31;;;;;;;2.90;1.25;;;;;;;;;;5021357;28;20517;-69
2022/09/16 10:07:00;;;;;;;2.90;1.52;;;;;;;;;;5022756;28;20046;-69
2022/09/16 10:09:34;;;;;;;2.28;1.45;;;;;;;;;;5016628;28;20071;-68
2022/09/16 10:12:04;;;;;;;2.13;1.13;;;;;;;;;;5020555;28;20053;-68
2022/09/16 10:14:33;;;;;;;4.70;2.83;;;;;;;;;;5018971;28;20128;-71
2022/09/16 10:17:04;;;;;;;3.60;1.80;;;;;;;;;;5020860;28;20680;-69
2022/09/16 10:19:35;;;;;;;3.67;1.65;;;;;;;;;;5015840;28;20049;-69
2022/09/16 10:22:10;;;;;;;3.20;1.77;;;;;;;;;;5018155;28;20383;-69
2022/09/16 10:24:39;;;;;;;2.47;1.70;;;;;;;;;;5012724;28;20056;-70
2022/09/16 10:27:19;;;;;;;2.38;1.42;;;;;;;;;;5016523;28;20084;-70
2022/09/16 10:29:48;;;;;;;1.98;1.48;;;;;;;;;;5017034;28;20042;-71
2022/09/16 10:32:20;;;;;;;3.67;1.48;;;;;;;;;;5014491;28;20079;-70
2022/09/16 10:34:48;;;;;;;2.78;1.60;;;;;;;;;;5021197;28;20120;-69
2022/09/16 10:37:18;;;;;;;2.08;1.58;;;;;;;;;;5019842;28;20053;-67
2022/09/16 10:39:50;;;;;;;2.33;1.40;;;;;;;;;;5022758;28;20056;-68
2022/09/16 10:42:21;;;;;;;2.85;1.08;;;;;;;;;;5017276;28;20096;-71
2022/09/16 10:44:51;;;;;;;3.22;1.58;;;;;;;;;;5018915;28;20405;-65
2022/09/16 10:47:22;;;;;;;2.33;1.17;;;;;;;;;;5015926;28;20049;-67
2022/09/16 10:49:52;;;;;;;2.83;0.88;;;;;;;;;;5007099;28;20044;-67
2022/09/16 10:52:22;;;;;;;1.58;1.02;;;;;;;;;;5015397;28;20045;-68
2022/09/16 10:54:51;;;;;;;2.35;1.00;;;;;;;;;;5015753;28;20061;-66
2022/09/16 10:57:24;;;;;;;1.92;1.40;;;;;;;;;;5017882;28;20439;-65
2022/09/16 11:00:05;;;;;;;1.35;0.90;;;;;;;;;;5021360;28;20037;-69
2022/09/16 11:02:45;;;;;;;2.22;0.88;;;;;;;;;;5020775;28;20049;-65
2022/09/16 11:05:16;;;;;;;0.85;0.80;;;;;;;;;;5011815;28;20065;-67
2022/09/16 11:07:48;;;;;;;1.67;0.98;;;;;;;;;;5013945;28;20049;-65
2022/09/16 11:10:22;;;;;;;3.13;1.08;;;;;;;;;;5020102;28;20076;-67
2022/09/16 11:13:03;;;;;;;1.40;0.80;;;;;;;;;;5027652;28;20049;-66
2022/09/16 11:15:36;;;;;;;1.67;0.95;;;;;;;;;;5020855;28;20136;-68
2022/09/16 11:18:14;;;;;;;0.80;0.60;;;;;;;;;;5022193;28;20079;-66
2022/09/16 11:20:50;;;;;;;0.95;0.85;;;;;;;;;;5019556;28;20266;-66
2022/09/16 11:23:27;;;;;;;8.90;1.27;;;;;;;;;;5014956;28;20081;-65
2022/09/16 11:26:01;;;;;;;2.00;1.08;;;;;;;;;;5013740;28;20084;-65
2022/09/16 11:28:43;;;;;;;1.95;1.30;;;;;;;;;;5017995;28;20428;-66
2022/09/16 11:31:16;;;;;;;1.05;0.80;;;;;;;;;;5021727;28;20046;-67
2022/09/16 11:33:51;;;;;;;1.90;1.00;;;;;;;;;;5017123;28;20081;-66
2022/09/16 11:36:31;;;;;;;1.98;0.95;;;;;;;;;;5015322;28;20053;-66
2022/09/16 11:39:06;;;;;;;2.80;0.90;;;;;;;;;;5023229;28;20057;-65
2022/09/16 11:41:34;;;;;;;;;;;;;;;;;;5021852;28;21841;-68
2022/09/16 11:44:09;;;;;;;1.65;0.75;;;;;;;;;;5024445;28;19931;-67
2022/09/16 11:46:42;;;;;;;0.65;0.65;;;;;;;;;;5021297;28;20054;-66
2022/09/16 11:49:24;;;;;;;0.90;0.68;;;;;;;;;;5021596;28;20046;-66
2022/09/16 11:51:58;;;;;;;1.00;0.85;;;;;;;;;;5024458;28;20046;-67
2022/09/16 11:54:34;;;;;;;1.20;0.55;;;;;;;;;;5024684;28;20136;-65
2022/09/16 11:57:05;;;;;;;1.67;1.10;;;;;;;;;;5024479;28;20060;-66
2022/09/16 11:59:36;;;;;;;0.88;0.63;;;;;;;;;;5024809;28;20620;-66
2022/09/16 12:02:15;;;;;;;4.65;0.90;;;;;;;;;;5021306;28;20041;-69
2022/09/16 12:04:47;;;;;;;1.92;0.95;;;;;;;;;;5017693;28;20054;-65
2022/09/16 12:07:18;;;;;;;1.80;0.80;;;;;;;;;;5025886;28;20054;-66
2022/09/16 12:09:49;;;;;;;0.80;0.68;;;;;;;;;;5024358;28;20080;-66
2022/09/16 12:12:20;;;;;;;1.45;0.80;;;;;;;;;;5032808;28;20092;-67
2022/09/16 12:14:54;;;;;;;1.55;0.80;;;;;;;;;;5027207;28;20107;-66
2022/09/16 12:17:25;;;;;;;1.07;0.47;;;;;;;;;;5029097;28;20677;-65
2022/09/16 12:19:58;;;;;;;1.20;1.10;;;;;;;;;;5023273;28;20119;-65
2022/09/16 12:22:27;;;;;;;2.45;1.08;;;;;;;;;;5028280;28;20103;-64
2022/09/16 12:24:59;;;;;;;0.47;0.43;;;;;;;;;;5030261;28;20068;-66
2022/09/16 12:27:42;;;;;;;1.27;0.65;;;;;;;;;;5021379;28;20057;-65
2022/09/16 12:30:14;;;;;;;1.35;0.75;;;;;;;;;;5027307;28;20492;-66
2022/09/16 12:32:48;;;;;;;1.27;0.47;;;;;;;;;;5022343;28;20107;-66
2022/09/16 12:35:20;;;;;;;2.25;1.10;;;;;;;;;;5022491;28;20184;-66
2022/09/16 12:37:50;;;;;;;1.63;1.00;;;;;;;;;;5026091;28;20475;-66
2022/09/16 12:40:24;;;;;;;7.68;0.73;;;;;;;;;;5024562;28;20140;-67
2022/09/16 12:43:10;;;;;;;0.82;0.55;;;;;;;;;;5019690;28;20053;-65
2022/09/16 12:45:48;;;;;;;2.25;1.20;;;;;;;;;;5021202;28;20050;-68
2022/09/16 12:48:27;;;;;;;2.00;0.85;;;;;;;;;;5020421;28;20042;-66
2022/09/16 12:51:05;;;;;;;2.35;0.60;;;;;;;;;;5021816;28;20041;-64
2022/09/16 12:54:01;;;;;;;1.58;0.85;;;;;;;;;;5024440;28;20148;-65
2022/09/16 12:56:30;;;;;;;;;;;;;;;;;;5012284;28;20422;-68
2022/09/16 12:59:12;;;;;;;1.30;0.65;;;;;;;;;;5022633;28;19929;-66
2022/09/16 13:01:43;;;;;;;0.55;0.43;;;;;;;;;;5022044;28;20511;-65
2022/09/16 13:04:15;;;;;;;0.25;0.25;;;;;;;;;;5018698;28;20048;-70
2022/09/16 13:06:48;;;;;;;0.65;0.47;;;;;;;;;;5019374;28;20067;-66
2022/09/16 13:09:22;;;;;;;0.32;0.32;;;;;;;;;;5016151;28;20149;-65
2022/09/16 13:11:55;;;;;;;0.55;0.45;;;;;;;;;;5020024;28;20050;-64
2022/09/16 13:14:46;;;;;;;1.30;0.55;;;;;;;;;;5020551;28;20060;-66
2022/09/16 13:17:15;;;;;;;1.15;1.05;;;;;;;;;;5020865;28;20409;-67
2022/09/16 13:19:47;;;;;;;0.93;0.60;;;;;;;;;;5016104;28;20422;-69
2022/09/16 13:22:21;;;;;;;0.50;0.50;;;;;;;;;;5019547;28;20041;-67
2022/09/16 13:24:55;;;;;;;0.90;0.57;;;;;;;;;;5017125;28;20093;-66
2022/09/16 13:27:28;;;;;;;0.65;0.52;;;;;;;;;;5013563;28;20386;-65
2022/09/16 13:30:13;;;;;;;4.80;0.60;;;;;;;;;;5018338;28;20411;-67
2022/09/16 13:32:43;;;;;;;0.85;0.70;;;;;;;;;;5014664;28;20143;-69
2022/09/16 13:35:23;;;;;;;0.38;0.38;;;;;;;;;;5017597;28;20061;-66
2022/09/16 13:37:54;;;;;;;1.02;0.60;;;;;;;;;;5012325;28;20076;-70
2022/09/16 13:40:24;;;;;;;4.50;0.77;;;;;;;;;;5022805;28;20042;-66
2022/09/16 13:43:03;;;;;;;0.22;0.22;;;;;;;;;;5022921;28;20053;-67
2022/09/16 13:45:35;;;;;;;1.17;1.08;;;;;;;;;;5016719;28;20049;-66
2022/09/16 13:48:10;;;;;;;1.70;0.50;;;;;;;;;;5020601;28;20049;-66
2022/09/16 13:50:38;;;;;;;3.10;0.50;;;;;;;;;;5016403;28;20690;-66
2022/09/16 13:53:20;;;;;;;2.33;0.70;;;;;;;;;;5016670;28;20458;-66
2022/09/16 13:55:49;;;;;;;1.35;0.70;;;;;;;;;;5021586;28;20053;-67
2022/09/16 13:58:22;;;;;;;0.85;0.60;;;;;;;;;;5020503;28;20464;-66
2022/09/16 14:00:57;;;;;;;1.13;0.70;;;;;;;;;;5019612;28;20767;-65
2022/09/16 14:03:25;;;;;;;;;;;;;;;;;;5015568;28;20053;-66
2022/09/16 14:06:03;;;;;;;0.38;0.38;;;;;;;;;;5019564;28;19964;-65
2022/09/16 14:08:38;;;;;;;0.93;0.60;;;;;;;;;;5017109;28;20054;-67
2022/09/16 14:11:11;;;;;;;4.55;0.73;;;;;;;;;;5018029;28;20140;-67
2022/09/16 14:13:42;;;;;;;0.50;0.38;;;;;;;;;;5014872;28;20054;-66
2022/09/16 14:16:15;;;;;;;1.15;0.70;;;;;;;;;;5020073;28;20532;-67
2022/09/16 14:18:46;;;;;;;0.22;0.22;;;;;;;;;;5015970;28;20057;-70
2022/09/16 14:21:18;;;;;;;0.93;0.93;;;;;;;;;;5023654;28;20045;-70
2022/09/16 14:23:48;;;;;;;0.52;0.45;;;;;;;;;;5017145;28;20052;-66
2022/09/16 14:26:19;;;;;;;1.40;1.00;;;;;;;;;;5016982;28;20522;-70
2022/09/16 14:28:48;;;;;;;0.95;0.50;;;;;;;;;;5007771;28;20078;-74
2022/09/16 14:31:19;;;;;;;1.30;0.60;;;;;;;;;;5012848;28;20081;-74
2022/09/16 14:33:50;;;;;;;1.15;0.63;;;;;;;;;;5006305;28;20046;-68
2022/09/16 14:36:25;;;;;;;0.55;0.40;;;;;;;;;;5018762;28;20104;-68
2022/09/16 14:38:57;;;;;;;2.47;0.85;;;;;;;;;;5015391;28;20395;-68
2022/09/16 14:41:30;;;;;;;0.75;0.70;;;;;;;;;;5020157;28;20162;-70
2022/09/16 14:44:08;;;;;;;0.50;0.47;;;;;;;;;;5018957;28;20068;-68
2022/09/16 14:46:40;;;;;;;0.77;0.68;;;;;;;;;;5017467;28;20417;-68
2022/09/16 14:49:10;;;;;;;0.88;0.63;;;;;;;;;;5014005;28;20061;-72
2022/09/16 14:51:39;;;;;;;1.42;0.70;;;;;;;;;;5013292;28;20050;-71
2022/09/16 14:54:17;;;;;;;2.25;0.80;;;;;;;;;;5009302;28;20096;-67
2022/09/16 14:56:55;;;;;;;1.30;0.52;;;;;;;;;;5014218;28;20048;-69
2022/09/16 14:59:25;;;;;;;1.15;0.88;;;;;;;;;;5016765;28;20449;-69
2022/09/16 15:01:55;;;;;;;1.55;0.70;;;;;;;;;;5020184;28;20046;-68
2022/09/16 15:04:26;;;;;;;1.45;0.85;;;;;;;;;;5016258;28;20045;-69
2022/09/16 15:06:56;;;;;;;1.70;1.08;;;;;;;;;;5022775;28;20108;-71
2022/09/16 15:09:35;;;;;;;1.17;0.65;;;;;;;;;;5015069;28;20150;-68